Time;durP1;ratioP1;P1;durP2;ratioP2;P2;SDS_P1;SDS_P2;PMS_P1;PMS_P2;Temp;Humidity;BMP_temperature;BMP_pressure;BME280_temperature;BME280_humidity;BME280_pressure;Samples;Min_cycle;Max_cycle;Signal;HPM_P1;HPM_P2
2022/10/17 00:00:50;;;;;;;11.90;3.33;;;;;;;;;;4978613;28;20020;-84
2022/10/17 00:03:16;;;;;;;7.07;3.95;;;;;;;;;;4972757;28;20031;-84
2022/10/17 00:05:44;;;;;;;5.07;3.50;;;;;;;;;;4965838;28;20034;-83
2022/10/17 00:08:11;;;;;;;11.18;3.42;;;;;;;;;;4972170;28;20098;-81
2022/10/17 00:10:36;;;;;;;8.75;3.05;;;;;;;;;;4972700;28;20116;-85
2022/10/17 00:13:02;;;;;;;6.78;2.95;;;;;;;;;;4969790;28;20035;-81
2022/10/17 00:15:28;;;;;;;8.88;3.30;;;;;;;;;;4970548;28;20026;-83
2022/10/17 00:17:53;;;;;;;8.13;3.30;;;;;;;;;;4969056;28;20064;-83
2022/10/17 00:20:18;;;;;;;9.60;3.15;;;;;;;;;;4971219;28;20387;-83
2022/10/17 00:22:44;;;;;;;5.10;2.80;;;;;;;;;;4979810;28;20385;-83
2022/10/17 00:25:10;;;;;;;7.43;3.13;;;;;;;;;;4963380;28;20089;-85
2022/10/17 00:27:37;;;;;;;6.10;3.22;;;;;;;;;;4975082;28;20485;-82
2022/10/17 00:30:03;;;;;;;5.82;2.58;;;;;;;;;;4970206;28;20035;-81
2022/10/17 00:32:28;;;;;;;8.75;2.47;;;;;;;;;;4966202;28;20572;-83
2022/10/17 00:34:54;;;;;;;7.05;2.67;;;;;;;;;;4964391;28;20046;-84
2022/10/17 00:37:19;;;;;;;7.85;3.03;;;;;;;;;;4962397;28;20382;-83
2022/10/17 00:39:44;;;;;;;7.18;2.35;;;;;;;;;;4971764;28;20121;-84
2022/10/17 00:42:11;;;;;;;4.45;2.13;;;;;;;;;;4975632;28;20113;-83
2022/10/17 00:44:40;;;;;;;5.68;2.70;;;;;;;;;;4968379;28;20110;-85
2022/10/17 00:47:10;;;;;;;3.70;2.60;;;;;;;;;;4970690;28;20316;-83
2022/10/17 00:49:37;;;;;;;6.25;2.58;;;;;;;;;;4969605;28;20508;-84
2022/10/17 00:52:16;;;;;;;8.38;2.78;;;;;;;;;;4969144;28;20042;-84
2022/10/17 00:54:50;;;;;;;4.22;2.78;;;;;;;;;;4998646;28;20046;-83
2022/10/17 00:57:16;;;;;;;7.65;2.80;;;;;;;;;;4968972;28;20037;-84
2022/10/17 00:59:44;;;;;;;9.88;3.35;;;;;;;;;;4965808;28;20027;-82
2022/10/17 01:02:16;;;;;;;2.95;2.30;;;;;;;;;;4972842;28;20557;-82
2022/10/17 01:04:45;;;;;;;9.63;3.80;;;;;;;;;;4971484;28;20038;-84
2022/10/17 01:07:10;;;;;;;3.90;2.55;;;;;;;;;;4979252;28;20118;-83
2022/10/17 01:09:36;;;;;;;8.57;2.83;;;;;;;;;;4970975;28;20114;-81
2022/10/17 01:12:04;;;;;;;4.80;2.40;;;;;;;;;;4970621;28;20069;-84
2022/10/17 01:14:38;;;;;;;9.85;2.40;;;;;;;;;;4975105;28;20034;-82
2022/10/17 01:17:19;;;;;;;8.85;2.53;;;;;;;;;;4971474;28;20026;-84
2022/10/17 01:20:12;;;;;;;3.22;2.30;;;;;;;;;;4973206;28;20417;-84
2022/10/17 01:23:13;;;;;;;10.10;2.60;;;;;;;;;;4972856;28;20042;-83
2022/10/17 01:25:52;;;;;;;6.10;2.60;;;;;;;;;;4975171;28;20027;-82
2022/10/17 01:28:20;;;;;;;4.03;2.40;;;;;;;;;;4969990;28;20046;-84
2022/10/17 01:31:05;;;;;;;3.08;2.25;;;;;;;;;;4965608;28;20050;-81
2022/10/17 01:33:36;;;;;;;4.78;2.38;;;;;;;;;;4968265;28;20031;-84
2022/10/17 01:36:14;;;;;;;10.20;2.58;;;;;;;;;;4976365;28;20041;-83
2022/10/17 01:38:47;;;;;;;5.70;2.50;;;;;;;;;;4973016;28;20508;-82
2022/10/17 01:41:19;;;;;;;3.13;2.30;;;;;;;;;;4971716;28;20022;-82
2022/10/17 01:43:59;;;;;;;8.68;2.70;;;;;;;;;;4972200;28;20038;-82
2022/10/17 01:46:33;;;;;;;4.30;2.08;;;;;;;;;;4968856;28;20062;-83
2022/10/17 01:49:00;;;;;;;4.28;2.28;;;;;;;;;;4979783;28;20031;-81
2022/10/17 01:51:32;;;;;;;3.80;2.25;;;;;;;;;;4972789;28;20565;-83
2022/10/17 01:54:02;;;;;;;2.92;2.08;;;;;;;;;;4968350;28;20037;-84
2022/10/17 01:56:30;;;;;;;5.88;2.47;;;;;;;;;;4973798;28;20035;-84
2022/10/17 01:59:00;;;;;;;2.40;2.17;;;;;;;;;;4975910;28;20126;-84
2022/10/17 02:01:28;;;;;;;3.08;2.30;;;;;;;;;;4972930;28;20106;-83
2022/10/17 02:03:57;;;;;;;5.90;2.58;;;;;;;;;;4963512;28;20557;-83
2022/10/17 02:06:22;;;;;;;6.32;2.45;;;;;;;;;;4969581;28;20470;-84
2022/10/17 02:08:49;;;;;;;7.32;2.15;;;;;;;;;;4971442;28;20118;-85
2022/10/17 02:11:23;;;;;;;3.25;2.33;;;;;;;;;;4976910;28;20034;-84
2022/10/17 02:14:13;;;;;;;7.55;2.47;;;;;;;;;;4975033;28;20042;-84
2022/10/17 02:17:08;;;;;;;8.15;2.53;;;;;;;;;;4963971;28;20027;-84
2022/10/17 02:19:51;;;;;;;2.72;2.35;;;;;;;;;;4975106;28;20019;-83
2022/10/17 02:22:38;;;;;;;5.20;2.50;;;;;;;;;;4965541;28;20082;-82
2022/10/17 02:25:11;;;;;;;3.53;2.13;;;;;;;;;;4977689;28;20085;-85
2022/10/17 02:27:43;;;;;;;10.23;2.20;;;;;;;;;;4970932;28;20109;-85
2022/10/17 02:30:20;;;;;;;4.30;2.40;;;;;;;;;;4974616;28;20034;-85
2022/10/17 02:32:51;;;;;;;5.60;2.60;;;;;;;;;;4989511;28;20011;-82
2022/10/17 02:35:20;;;;;;;6.80;2.70;;;;;;;;;;4987316;28;20028;-81
2022/10/17 02:37:46;;;;;;;9.00;2.50;;;;;;;;;;4983636;28;20023;-84
2022/10/17 02:40:15;;;;;;;4.97;2.42;;;;;;;;;;4981969;28;20046;-85
2022/10/17 02:42:43;;;;;;;5.65;2.63;;;;;;;;;;4980983;28;20027;-85
2022/10/17 02:45:10;;;;;;;7.90;2.22;;;;;;;;;;4980567;28;20030;-85
2022/10/17 02:47:43;;;;;;;4.70;2.25;;;;;;;;;;4980048;28;20041;-84
2022/10/17 02:50:09;;;;;;;4.28;2.83;;;;;;;;;;4982064;28;20042;-84
2022/10/17 02:52:58;;;;;;;7.40;2.38;;;;;;;;;;4977639;28;20027;-84
2022/10/17 02:55:34;;;;;;;4.25;2.50;;;;;;;;;;4977142;28;20054;-84
2022/10/17 02:58:04;;;;;;;5.47;2.60;;;;;;;;;;4976264;28;20068;-86
2022/10/17 03:00:30;;;;;;;6.90;2.58;;;;;;;;;;4978616;28;20026;-86
2022/10/17 03:02:56;;;;;;;6.55;2.65;;;;;;;;;;4977365;28;20110;-85
2022/10/17 03:05:24;;;;;;;6.13;2.30;;;;;;;;;;4977599;28;20062;-84
2022/10/17 03:07:50;;;;;;;8.38;2.70;;;;;;;;;;4973308;28;20034;-85
2022/10/17 03:10:16;;;;;;;4.60;2.45;;;;;;;;;;4969136;28;20035;-83
2022/10/17 03:12:41;;;;;;;6.70;2.60;;;;;;;;;;4965240;28;20027;-82
2022/10/17 03:15:07;;;;;;;6.43;2.85;;;;;;;;;;4966356;28;20034;-85
2022/10/17 03:17:34;;;;;;;9.27;3.03;;;;;;;;;;4970719;28;20074;-85
2022/10/17 03:19:59;;;;;;;3.90;2.30;;;;;;;;;;4969289;28;20894;-84
2022/10/17 03:22:24;;;;;;;3.55;2.50;;;;;;;;;;4967239;28;20482;-85
2022/10/17 03:24:50;;;;;;;6.30;2.17;;;;;;;;;;4967641;28;20059;-83
2022/10/17 03:27:15;;;;;;;17.95;2.95;;;;;;;;;;4968627;28;20023;-84
2022/10/17 03:29:41;;;;;;;7.80;2.60;;;;;;;;;;4972303;28;20197;-84
2022/10/17 03:32:06;;;;;;;5.45;2.38;;;;;;;;;;4976266;28;20026;-83
2022/10/17 03:34:31;;;;;;;8.63;2.55;;;;;;;;;;4970706;28;20030;-85
2022/10/17 03:36:57;;;;;;;11.70;2.72;;;;;;;;;;4968863;28;20378;-85
2022/10/17 03:39:22;;;;;;;4.03;2.45;;;;;;;;;;4967861;28;20106;-84
2022/10/17 03:41:48;;;;;;;5.90;2.70;;;;;;;;;;4969628;28;20069;-85
2022/10/17 03:44:14;;;;;;;6.43;2.55;;;;;;;;;;4975357;28;20049;-82
2022/10/17 03:46:39;;;;;;;9.55;3.00;;;;;;;;;;4966713;28;20019;-82
2022/10/17 03:49:04;;;;;;;12.45;4.10;;;;;;;;;;4971422;28;20062;-83
2022/10/17 03:51:32;;;;;;;5.57;2.25;;;;;;;;;;4974230;28;20050;-85
2022/10/17 03:53:57;;;;;;;5.20;2.70;;;;;;;;;;4968250;28;20408;-83
2022/10/17 03:56:24;;;;;;;6.20;2.58;;;;;;;;;;4967211;28;20022;-84
2022/10/17 03:58:49;;;;;;;6.13;2.75;;;;;;;;;;4978140;28;20473;-84
2022/10/17 04:01:16;;;;;;;5.90;3.13;;;;;;;;;;4971334;28;20026;-85
2022/10/17 04:03:42;;;;;;;3.88;2.60;;;;;;;;;;4974805;28;20042;-83
2022/10/17 04:06:10;;;;;;;4.68;2.55;;;;;;;;;;4974515;28;20105;-85
2022/10/17 04:08:36;;;;;;;14.07;2.67;;;;;;;;;;4970032;28;20121;-81
2022/10/17 04:11:04;;;;;;;6.00;3.08;;;;;;;;;;4976147;28;20520;-84
2022/10/17 04:13:30;;;;;;;6.90;2.67;;;;;;;;;;4970629;28;20092;-85
2022/10/17 04:16:05;;;;;;;8.02;2.95;;;;;;;;;;4972715;28;20077;-84
2022/10/17 04:18:31;;;;;;;3.60;2.80;;;;;;;;;;4975162;28;20046;-83
2022/10/17 04:20:59;;;;;;;12.02;2.83;;;;;;;;;;4971735;28;20070;-85
2022/10/17 04:23:26;;;;;;;4.45;2.28;;;;;;;;;;4966943;28;20069;-84
2022/10/17 04:25:55;;;;;;;7.13;3.35;;;;;;;;;;4976247;28;20047;-84
2022/10/17 04:28:20;;;;;;;6.53;2.50;;;;;;;;;;4972827;28;20034;-84
2022/10/17 04:30:45;;;;;;;3.67;2.70;;;;;;;;;;4970505;28;20030;-83
2022/10/17 04:33:11;;;;;;;3.40;2.47;;;;;;;;;;4966143;28;20037;-84
2022/10/17 04:35:36;;;;;;;3.50;2.58;;;;;;;;;;4972761;28;20062;-85
2022/10/17 04:38:01;;;;;;;6.60;2.65;;;;;;;;;;4974519;28;20101;-84
2022/10/17 04:40:29;;;;;;;3.28;2.20;;;;;;;;;;4974016;28;20476;-83
2022/10/17 04:42:54;;;;;;;5.20;2.60;;;;;;;;;;4977408;28;20046;-84
2022/10/17 04:45:20;;;;;;;8.88;2.20;;;;;;;;;;4974915;28;20405;-84
2022/10/17 04:47:45;;;;;;;2.60;2.17;;;;;;;;;;4986511;28;20015;-82
2022/10/17 04:50:10;;;;;;;4.97;2.55;;;;;;;;;;4999978;28;20697;-81
2022/10/17 04:52:36;;;;;;;4.20;2.70;;;;;;;;;;4994456;28;20094;-84
2022/10/17 04:55:05;;;;;;;2.55;2.03;;;;;;;;;;4986456;28;20031;-83
2022/10/17 04:57:33;;;;;;;5.22;2.63;;;;;;;;;;4980619;28;20116;-85
2022/10/17 04:59:59;;;;;;;3.72;2.25;;;;;;;;;;4980083;28;20023;-82
2022/10/17 05:02:24;;;;;;;6.90;2.65;;;;;;;;;;4975381;28;20512;-82
2022/10/17 05:04:49;;;;;;;2.47;2.00;;;;;;;;;;4977179;28;20027;-85
2022/10/17 05:07:14;;;;;;;7.18;3.20;;;;;;;;;;4990386;28;20023;-83
2022/10/17 05:09:40;;;;;;;4.05;2.40;;;;;;;;;;4989624;28;20037;-84
2022/10/17 05:12:05;;;;;;;3.92;2.50;;;;;;;;;;4990858;28;20030;-82
2022/10/17 05:14:30;;;;;;;7.72;2.53;;;;;;;;;;4986945;28;20045;-83
2022/10/17 05:16:56;;;;;;;9.32;2.53;;;;;;;;;;4989194;28;20038;-84
2022/10/17 05:19:21;;;;;;;10.77;2.60;;;;;;;;;;4985410;28;20019;-81
2022/10/17 05:21:46;;;;;;;4.85;2.92;;;;;;;;;;4985059;28;20010;-83
2022/10/17 05:24:13;;;;;;;10.27;2.78;;;;;;;;;;4980848;28;20117;-82
2022/10/17 05:26:39;;;;;;;5.22;2.80;;;;;;;;;;4977251;28;20027;-83
2022/10/17 05:29:04;;;;;;;4.00;2.42;;;;;;;;;;4977316;28;20034;-86
2022/10/17 05:31:30;;;;;;;7.35;2.90;;;;;;;;;;4976369;28;20533;-87
2022/10/17 05:34:05;;;;;;;6.13;2.45;;;;;;;;;;4983821;28;20039;-88
2022/10/17 05:36:31;;;;;;;4.07;2.40;;;;;;;;;;4978242;28;20027;-88
2022/10/17 05:38:56;;;;;;;6.32;2.88;;;;;;;;;;4978562;28;20123;-86
2022/10/17 05:41:21;;;;;;;8.20;3.13;;;;;;;;;;4981665;28;20014;-83
2022/10/17 05:43:50;;;;;;;7.00;3.55;;;;;;;;;;4974587;28;20031;-89
2022/10/17 05:46:16;;;;;;;8.32;3.20;;;;;;;;;;4971907;28;20042;-86
2022/10/17 05:48:41;;;;;;;19.75;3.28;;;;;;;;;;4966795;28;20031;-87
2022/10/17 05:51:08;;;;;;;9.05;3.35;;;;;;;;;;4960309;28;20041;-89
2022/10/17 05:53:39;;;;;;;5.18;2.90;;;;;;;;;;4969105;28;20360;-87
2022/10/17 05:56:06;;;;;;;5.50;3.00;;;;;;;;;;4968852;28;20089;-87
2022/10/17 05:58:33;;;;;;;4.40;2.78;;;;;;;;;;4964282;28;20026;-88
2022/10/17 06:01:04;;;;;;;7.53;2.90;;;;;;;;;;4964113;28;20028;-88
2022/10/17 06:03:30;;;;;;;11.60;3.27;;;;;;;;;;4964123;28;20041;-88
2022/10/17 06:05:56;;;;;;;5.72;2.67;;;;;;;;;;4956037;28;21551;-85
2022/10/17 06:08:21;;;;;;;4.53;2.85;;;;;;;;;;4961994;28;20359;-87
2022/10/17 06:10:50;;;;;;;5.15;2.88;;;;;;;;;;4965151;28;20382;-86
2022/10/17 06:13:17;;;;;;;3.72;2.58;;;;;;;;;;4962783;28;20042;-86
2022/10/17 06:15:43;;;;;;;3.70;2.70;;;;;;;;;;4961902;28;20489;-84
2022/10/17 06:18:10;;;;;;;6.65;2.90;;;;;;;;;;4960726;28;20046;-86
2022/10/17 06:20:36;;;;;;;4.55;2.70;;;;;;;;;;4956545;28;20082;-87
2022/10/17 06:23:01;;;;;;;7.70;2.88;;;;;;;;;;4959420;28;20023;-87
2022/10/17 06:25:28;;;;;;;6.28;2.80;;;;;;;;;;4957000;28;20030;-88
2022/10/17 06:27:53;;;;;;;10.70;3.30;;;;;;;;;;4972151;28;20033;-87
2022/10/17 06:30:18;;;;;;;4.57;3.00;;;;;;;;;;4965223;28;20110;-87
2022/10/17 06:32:53;;;;;;;9.95;3.33;;;;;;;;;;4957361;28;20097;-87
2022/10/17 06:35:19;;;;;;;6.47;2.95;;;;;;;;;;4968905;28;20026;-87
2022/10/17 06:37:44;;;;;;;5.65;2.47;;;;;;;;;;4979650;28;20033;-87
2022/10/17 06:40:36;;;;;;;2.80;2.40;;;;;;;;;;4979355;28;20023;-88
2022/10/17 06:43:01;;;;;;;8.75;2.50;;;;;;;;;;4960038;28;20648;-88
2022/10/17 06:45:27;;;;;;;6.70;2.33;;;;;;;;;;4966010;28;20064;-86
2022/10/17 06:47:52;;;;;;;5.35;2.78;;;;;;;;;;4963113;28;20025;-86
2022/10/17 06:50:17;;;;;;;5.32;2.17;;;;;;;;;;4957553;28;20033;-87
2022/10/17 06:52:43;;;;;;;10.90;2.75;;;;;;;;;;4962514;28;20030;-87
2022/10/17 06:55:08;;;;;;;5.82;3.00;;;;;;;;;;4963268;28;20477;-87
2022/10/17 06:57:34;;;;;;;6.57;2.60;;;;;;;;;;4963472;28;20027;-87
2022/10/17 06:59:59;;;;;;;7.90;2.38;;;;;;;;;;4963077;28;20014;-88
2022/10/17 07:02:25;;;;;;;6.22;2.70;;;;;;;;;;4964020;28;20127;-88
2022/10/17 07:04:51;;;;;;;5.47;2.88;;;;;;;;;;4961711;28;20122;-86
2022/10/17 07:07:16;;;;;;;3.67;2.30;;;;;;;;;;4963763;28;20027;-85
2022/10/17 07:09:41;;;;;;;5.57;2.50;;;;;;;;;;4960645;28;20030;-87
2022/10/17 07:12:07;;;;;;;9.15;2.42;;;;;;;;;;4967683;28;20056;-85
2022/10/17 07:14:34;;;;;;;5.53;2.60;;;;;;;;;;4984377;28;20010;-85
2022/10/17 07:17:00;;;;;;;6.13;2.25;;;;;;;;;;4982260;28;20023;-85
2022/10/17 07:19:28;;;;;;;6.63;2.95;;;;;;;;;;4974292;28;20034;-86
2022/10/17 07:21:53;;;;;;;8.50;2.80;;;;;;;;;;4966409;28;20121;-87
2022/10/17 07:24:19;;;;;;;6.25;2.08;;;;;;;;;;4961369;28;20023;-86
2022/10/17 07:26:44;;;;;;;8.40;2.33;;;;;;;;;;4962765;28;20027;-87
2022/10/17 07:29:10;;;;;;;10.45;2.53;;;;;;;;;;4962184;28;20031;-84
2022/10/17 07:31:36;;;;;;;13.88;2.90;;;;;;;;;;4956386;28;21241;-86
2022/10/17 07:34:02;;;;;;;5.75;2.22;;;;;;;;;;4962021;28;20043;-85
2022/10/17 07:36:27;;;;;;;9.85;2.70;;;;;;;;;;4952110;28;20027;-84
2022/10/17 07:38:53;;;;;;;9.45;3.33;;;;;;;;;;4953213;28;20086;-86
2022/10/17 07:41:18;;;;;;;6.35;2.20;;;;;;;;;;4965766;28;20031;-86
2022/10/17 07:43:44;;;;;;;7.85;2.70;;;;;;;;;;4987995;28;20385;-88
2022/10/17 07:46:10;;;;;;;7.68;2.67;;;;;;;;;;4995020;28;20037;-87
2022/10/17 07:48:37;;;;;;;9.80;2.85;;;;;;;;;;4996712;28;20033;-87
2022/10/17 07:51:05;;;;;;;5.88;2.92;;;;;;;;;;4963603;28;20033;-84
2022/10/17 07:53:31;;;;;;;5.00;2.63;;;;;;;;;;4966880;28;20019;-85
2022/10/17 07:55:56;;;;;;;7.63;2.17;;;;;;;;;;4961359;28;20564;-84
2022/10/17 07:58:22;;;;;;;6.55;2.10;;;;;;;;;;4961529;28;20029;-86
2022/10/17 08:00:49;;;;;;;5.93;2.20;;;;;;;;;;4961046;28;20405;-85
2022/10/17 08:03:15;;;;;;;5.53;2.28;;;;;;;;;;4959710;28;20031;-88
2022/10/17 08:05:41;;;;;;;6.97;2.30;;;;;;;;;;4962954;28;20030;-86
2022/10/17 08:08:06;;;;;;;7.20;2.65;;;;;;;;;;4958218;28;20560;-86
2022/10/17 08:10:32;;;;;;;9.23;2.35;;;;;;;;;;4957418;28;20046;-86
2022/10/17 08:12:57;;;;;;;7.15;2.53;;;;;;;;;;4992496;28;20385;-86
2022/10/17 08:15:24;;;;;;;6.93;2.38;;;;;;;;;;4979113;28;20094;-86
2022/10/17 08:17:50;;;;;;;8.43;2.70;;;;;;;;;;4970955;28;20042;-86
2022/10/17 08:20:15;;;;;;;6.57;2.30;;;;;;;;;;4978545;28;20019;-87
2022/10/17 08:22:41;;;;;;;9.02;2.70;;;;;;;;;;4972192;28;20022;-86
2022/10/17 08:25:07;;;;;;;5.50;2.30;;;;;;;;;;4970692;28;20037;-85
2022/10/17 08:27:33;;;;;;;8.07;2.00;;;;;;;;;;4966784;28;20026;-86
2022/10/17 08:29:58;;;;;;;7.78;2.50;;;;;;;;;;4970482;28;20023;-86
2022/10/17 08:32:26;;;;;;;10.60;2.55;;;;;;;;;;4972783;28;20031;-86
2022/10/17 08:34:52;;;;;;;5.47;2.08;;;;;;;;;;4985508;28;20023;-86
2022/10/17 08:37:18;;;;;;;11.32;2.45;;;;;;;;;;4967695;28;20023;-86
2022/10/17 08:39:44;;;;;;;14.55;2.80;;;;;;;;;;4968474;28;20042;-86
2022/10/17 08:42:33;;;;;;;4.18;2.75;;;;;;;;;;4968803;28;20050;-87
2022/10/17 08:45:21;;;;;;;5.55;2.42;;;;;;;;;;4964841;28;20033;-87
2022/10/17 08:48:09;;;;;;;7.90;2.58;;;;;;;;;;4967568;28;20054;-87
2022/10/17 08:50:52;;;;;;;5.93;2.55;;;;;;;;;;4972894;28;20049;-86
2022/10/17 08:53:39;;;;;;;7.57;2.30;;;;;;;;;;4976803;28;20034;-86
2022/10/17 08:56:15;;;;;;;4.00;2.10;;;;;;;;;;4980831;28;20536;-87
2022/10/17 08:58:40;;;;;;;11.32;3.70;;;;;;;;;;4979670;28;20548;-86
2022/10/17 09:01:52;;;;;;;15.80;3.35;;;;;;;;;;4981966;28;20432;-86
2022/10/17 09:04:36;;;;;;;11.32;2.47;;;;;;;;;;4982468;28;20026;-86
2022/10/17 09:07:56;;;;;;;6.40;1.85;;;;;;;;;;4981482;28;20114;-86
2022/10/17 09:10:49;;;;;;;4.13;2.05;;;;;;;;;;4961964;28;20278;-87
2022/10/17 09:13:42;;;;;;;5.55;2.50;;;;;;;;;;4981145;28;20022;-87
2022/10/17 09:16:36;;;;;;;5.60;2.20;;;;;;;;;;4979844;28;20401;-86
2022/10/17 09:19:21;;;;;;;4.38;2.40;;;;;;;;;;4980173;28;20022;-86
2022/10/17 09:21:52;;;;;;;5.88;2.10;;;;;;;;;;4976769;28;20023;-86
2022/10/17 09:24:32;;;;;;;3.38;2.20;;;;;;;;;;4980248;28;20027;-86
2022/10/17 09:26:59;;;;;;;4.85;2.45;;;;;;;;;;4980561;28;20089;-86
2022/10/17 09:29:25;;;;;;;9.18;2.70;;;;;;;;;;4979419;28;20027;-86
2022/10/17 09:32:11;;;;;;;5.28;2.40;;;;;;;;;;4981540;28;20033;-87
2022/10/17 09:34:37;;;;;;;7.75;2.92;;;;;;;;;;4983900;28;20052;-86
2022/10/17 09:37:02;;;;;;;7.55;2.55;;;;;;;;;;5000822;28;20031;-86
2022/10/17 09:39:30;;;;;;;4.47;2.30;;;;;;;;;;4998850;28;20358;-86
2022/10/17 09:42:00;;;;;;;7.75;2.53;;;;;;;;;;5000478;28;20026;-86
2022/10/17 09:44:30;;;;;;;4.07;2.20;;;;;;;;;;5000460;28;20057;-86
2022/10/17 09:47:34;;;;;;;2.83;2.28;;;;;;;;;;4999786;28;20030;-86
2022/10/17 09:50:00;;;;;;;7.55;2.00;;;;;;;;;;4952254;28;20079;-86
2022/10/17 09:52:33;;;;;;;12.05;2.00;;;;;;;;;;4986251;28;20022;-86
2022/10/17 09:55:05;;;;;;;6.40;3.30;;;;;;;;;;4998479;28;20030;-86
2022/10/17 09:57:54;;;;;;;5.82;2.78;;;;;;;;;;4979359;28;20031;-87
2022/10/17 10:00:33;;;;;;;7.47;2.15;;;;;;;;;;4979770;28;20027;-87
2022/10/17 10:03:18;;;;;;;5.90;2.20;;;;;;;;;;4982693;28;20027;-88
2022/10/17 10:06:20;;;;;;;5.93;1.95;;;;;;;;;;4975320;28;20026;-86
2022/10/17 10:09:02;;;;;;;3.70;2.13;;;;;;;;;;4976234;28;20032;-84
2022/10/17 10:11:48;;;;;;;9.75;2.22;;;;;;;;;;4971576;28;20031;-86
2022/10/17 10:14:24;;;;;;;9.13;2.25;;;;;;;;;;4970587;28;20033;-85
2022/10/17 10:16:52;;;;;;;8.15;2.35;;;;;;;;;;4971018;28;20130;-86
2022/10/17 10:19:34;;;;;;;3.45;2.28;;;;;;;;;;4969957;28;20497;-86
2022/10/17 10:22:02;;;;;;;4.18;2.17;;;;;;;;;;4972167;28;20045;-86
2022/10/17 10:24:28;;;;;;;6.70;2.25;;;;;;;;;;4970845;28;20039;-85
2022/10/17 10:26:57;;;;;;;7.68;2.40;;;;;;;;;;4973047;28;20033;-85
2022/10/17 10:29:38;;;;;;;2.92;1.85;;;;;;;;;;4972685;28;20428;-86
2022/10/17 10:32:39;;;;;;;5.88;2.50;;;;;;;;;;4971710;28;20031;-87
2022/10/17 10:35:17;;;;;;;9.32;2.10;;;;;;;;;;4956941;28;20037;-85
2022/10/17 10:37:55;;;;;;;7.40;2.15;;;;;;;;;;4975481;28;20034;-86
2022/10/17 10:40:45;;;;;;;4.35;2.20;;;;;;;;;;4984082;28;20018;-84
2022/10/17 10:43:22;;;;;;;15.40;2.30;;;;;;;;;;4975042;28;20034;-85
2022/10/17 10:45:54;;;;;;;4.90;2.17;;;;;;;;;;4985279;28;20033;-87
2022/10/17 10:48:35;;;;;;;4.90;1.95;;;;;;;;;;4968102;28;20042;-84
2022/10/17 10:51:03;;;;;;;8.50;2.83;;;;;;;;;;4974049;28;20023;-82
2022/10/17 10:54:03;;;;;;;5.53;1.95;;;;;;;;;;4975895;28;20094;-84
2022/10/17 10:56:35;;;;;;;14.02;2.40;;;;;;;;;;4953639;28;20094;-84
2022/10/17 10:59:09;;;;;;;9.10;2.28;;;;;;;;;;4960083;28;20038;-83
2022/10/17 11:01:59;;;;;;;7.35;2.10;;;;;;;;;;4961003;28;20023;-82
2022/10/17 11:04:28;;;;;;;5.25;2.10;;;;;;;;;;4958373;29;20023;-84
2022/10/17 11:07:09;;;;;;;6.93;1.80;;;;;;;;;;4958475;28;20115;-84
2022/10/17 11:09:43;;;;;;;3.75;1.60;;;;;;;;;;4960043;28;20031;-82
2022/10/17 11:12:27;;;;;;;1.73;1.30;;;;;;;;;;4960157;28;20023;-81
2022/10/17 11:14:55;;;;;;;2.83;1.52;;;;;;;;;;4961535;28;20027;-82
2022/10/17 11:17:27;;;;;;;5.85;1.90;;;;;;;;;;4963618;28;20035;-84
2022/10/17 11:20:08;;;;;;;7.32;1.75;;;;;;;;;;4957816;28;20035;-84
2022/10/17 11:22:43;;;;;;;4.35;1.70;;;;;;;;;;4958920;28;20078;-84
2022/10/17 11:25:33;;;;;;;3.78;1.77;;;;;;;;;;4958293;28;20110;-81
2022/10/17 11:27:59;;;;;;;3.50;1.65;;;;;;;;;;4979247;28;20086;-84
2022/10/17 11:30:28;;;;;;;7.32;1.80;;;;;;;;;;4996661;28;20018;-84
2022/10/17 11:32:58;;;;;;;5.70;1.75;;;;;;;;;;4997447;28;20026;-83
2022/10/17 11:35:36;;;;;;;4.80;1.90;;;;;;;;;;4977545;28;20034;-83
2022/10/17 11:38:23;;;;;;;2.13;1.45;;;;;;;;;;4984676;28;20085;-82
2022/10/17 11:40:51;;;;;;;3.25;1.55;;;;;;;;;;4981179;28;20062;-80
2022/10/17 11:43:55;;;;;;;8.40;2.03;;;;;;;;;;4997737;28;20018;-81
2022/10/17 11:46:23;;;;;;;5.10;1.42;;;;;;;;;;4944894;29;20070;-81
2022/10/17 11:48:48;;;;;;;7.15;1.60;;;;;;;;;;4954418;28;20071;-83
2022/10/17 11:51:15;;;;;;;2.08;1.23;;;;;;;;;;4958822;28;20031;-83
2022/10/17 11:53:49;;;;;;;4.00;1.60;;;;;;;;;;4959481;29;20031;-83
2022/10/17 11:56:25;;;;;;;7.95;2.22;;;;;;;;;;4958230;28;20031;-84
2022/10/17 11:59:09;;;;;;;3.28;1.42;;;;;;;;;;4958088;28;20474;-82
2022/10/17 12:01:43;;;;;;;3.08;1.40;;;;;;;;;;4960238;28;20055;-82
2022/10/17 12:04:14;;;;;;;2.42;1.40;;;;;;;;;;4958325;28;20035;-83
2022/10/17 12:07:09;;;;;;;2.35;1.15;;;;;;;;;;4958872;28;20094;-84
2022/10/17 12:09:45;;;;;;;5.50;1.48;;;;;;;;;;4969651;28;20039;-82
2022/10/17 12:12:27;;;;;;;1.85;1.50;;;;;;;;;;4976940;28;20031;-84
2022/10/17 12:14:56;;;;;;;2.45;1.20;;;;;;;;;;4974827;28;20035;-83
2022/10/17 12:17:33;;;;;;;3.25;1.40;;;;;;;;;;4967785;28;20027;-83
2022/10/17 12:20:23;;;;;;;4.97;1.52;;;;;;;;;;4973982;28;21202;-83
2022/10/17 12:22:58;;;;;;;4.65;1.40;;;;;;;;;;4974306;28;20063;-84
2022/10/17 12:25:31;;;;;;;2.17;1.20;;;;;;;;;;4976230;28;20110;-83
2022/10/17 12:28:24;;;;;;;5.75;1.58;;;;;;;;;;5231793;23;21005;-84
2022/10/17 12:31:11;;;;;;;1.85;1.27;;;;;;;;;;4980842;28;20038;-84
2022/10/17 12:34:53;;;;;;;3.53;1.13;;;;;;;;;;4972749;28;20062;-82
2022/10/17 12:37:51;;;;;;;3.45;1.50;;;;;;;;;;4991535;28;20121;-84
2022/10/17 12:40:50;;;;;;;2.97;1.52;;;;;;;;;;4978835;28;20022;-83
2022/10/17 12:43:15;;;;;;;2.53;1.60;;;;;;;;;;4972961;28;20058;-86
2022/10/17 12:45:57;;;;;;;4.45;1.50;;;;;;;;;;4973732;28;20024;-85
2022/10/17 12:48:35;;;;;;;5.72;1.40;;;;;;;;;;4978595;28;20082;-84
2022/10/17 12:51:10;;;;;;;3.25;1.60;;;;;;;;;;4978385;28;20334;-85
2022/10/17 12:53:58;;;;;;;6.13;1.85;;;;;;;;;;4974082;28;20122;-81
2022/10/17 12:56:37;;;;;;;6.93;1.85;;;;;;;;;;4983046;28;20026;-86
2022/10/17 12:59:13;;;;;;;1.95;1.52;;;;;;;;;;4980434;28;20038;-85
2022/10/17 13:01:42;;;;;;;3.00;1.42;;;;;;;;;;4985829;28;20027;-85
2022/10/17 13:04:09;;;;;;;4.97;1.73;;;;;;;;;;4969068;28;20019;-84
2022/10/17 13:06:47;;;;;;;5.47;2.20;;;;;;;;;;4991859;28;20101;-86
2022/10/17 13:09:30;;;;;;;2.80;1.90;;;;;;;;;;4975932;28;20025;-84
2022/10/17 13:11:58;;;;;;;5.82;1.70;;;;;;;;;;4974902;28;20027;-85
2022/10/17 13:14:25;;;;;;;5.97;1.73;;;;;;;;;;4979411;28;20062;-83
2022/10/17 13:16:59;;;;;;;4.03;1.40;;;;;;;;;;4969164;28;20039;-84
2022/10/17 13:19:39;;;;;;;4.65;1.58;;;;;;;;;;4977462;28;20424;-85
2022/10/17 13:22:29;;;;;;;1.83;1.63;;;;;;;;;;4975458;28;20035;-85
2022/10/17 13:25:13;;;;;;;6.90;1.83;;;;;;;;;;4976054;28;20050;-83
2022/10/17 13:27:38;;;;;;;2.13;1.38;;;;;;;;;;4974210;28;20031;-84
2022/10/17 13:30:43;;;;;;;2.10;1.63;;;;;;;;;;4971690;28;20144;-83
2022/10/17 13:33:34;;;;;;;7.72;2.58;;;;;;;;;;4957858;28;20035;-82
2022/10/17 13:36:02;;;;;;;7.93;2.05;;;;;;;;;;4971619;28;20031;-85
2022/10/17 13:38:35;;;;;;;8.13;2.13;;;;;;;;;;4979811;28;20034;-84
2022/10/17 13:41:01;;;;;;;5.30;1.83;;;;;;;;;;4992569;28;20026;-82
2022/10/17 13:43:28;;;;;;;6.35;2.35;;;;;;;;;;4966924;28;20121;-83
2022/10/17 13:46:02;;;;;;;10.45;2.90;;;;;;;;;;4962106;28;20038;-84
2022/10/17 13:48:31;;;;;;;4.43;2.10;;;;;;;;;;4980589;28;20034;-81
2022/10/17 13:51:00;;;;;;;3.60;1.90;;;;;;;;;;4974747;28;20023;-83
2022/10/17 13:53:35;;;;;;;5.50;1.40;;;;;;;;;;4970863;28;20076;-83
2022/10/17 13:56:20;;;;;;;2.72;1.40;;;;;;;;;;4968387;28;20558;-82
2022/10/17 13:58:50;;;;;;;3.97;1.50;;;;;;;;;;4980729;28;20027;-83
2022/10/17 14:01:17;;;;;;;3.33;1.40;;;;;;;;;;4963839;28;20027;-83
2022/10/17 14:03:44;;;;;;;5.72;1.50;;;;;;;;;;4975644;28;20026;-83
2022/10/17 14:06:15;;;;;;;2.63;1.17;;;;;;;;;;4997068;28;20022;-84
2022/10/17 14:08:48;;;;;;;3.03;1.33;;;;;;;;;;4980538;28;20038;-83
2022/10/17 14:11:41;;;;;;;9.38;1.80;;;;;;;;;;4978199;28;20026;-84
2022/10/17 14:14:16;;;;;;;4.32;1.48;;;;;;;;;;4974988;28;20130;-85
2022/10/17 14:17:21;;;;;;;2.40;1.60;;;;;;;;;;4968654;28;20022;-84
2022/10/17 14:19:51;;;;;;;2.92;1.42;;;;;;;;;;4980579;28;20014;-83
2022/10/17 14:22:25;;;;;;;4.15;1.38;;;;;;;;;;4992194;28;20027;-82
2022/10/17 14:24:52;;;;;;;5.85;2.58;;;;;;;;;;4966552;28;20034;-83
2022/10/17 14:30:07;;;;;;;5.85;1.70;;;;;;;;;;5017529;28;20053;-84
2022/10/17 14:32:35;;;;;;;2.05;1.70;;;;;;;;;;5006004;28;20025;-84
2022/10/17 14:35:05;;;;;;;3.13;1.60;;;;;;;;;;5019492;28;20017;-83
2022/10/17 14:37:44;;;;;;;5.65;1.50;;;;;;;;;;5015188;28;20028;-83
2022/10/17 14:40:24;;;;;;;6.60;1.58;;;;;;;;;;4984103;28;20504;-84
2022/10/17 14:42:54;;;;;;;3.70;1.20;;;;;;;;;;4998354;28;20053;-84
2022/10/17 14:45:29;;;;;;;2.60;1.33;;;;;;;;;;4993463;28;20021;-83
2022/10/17 14:48:00;;;;;;;4.97;1.35;;;;;;;;;;5001241;28;20041;-83
2022/10/17 14:50:28;;;;;;;4.72;1.70;;;;;;;;;;4996708;28;20023;-83
2022/10/17 14:53:11;;;;;;;2.45;1.63;;;;;;;;;;4997453;28;20108;-83
2022/10/17 14:55:39;;;;;;;3.38;1.50;;;;;;;;;;4995150;28;20472;-83
2022/10/17 14:58:36;;;;;;;3.85;1.52;;;;;;;;;;4995680;28;20523;-83
2022/10/17 15:01:02;;;;;;;7.60;1.60;;;;;;;;;;4980512;28;20035;-84
2022/10/17 15:03:27;;;;;;;8.05;1.77;;;;;;;;;;4992103;28;20025;-83
2022/10/17 15:05:54;;;;;;;2.67;1.42;;;;;;;;;;4998380;28;20579;-83
2022/10/17 15:08:21;;;;;;;2.38;1.67;;;;;;;;;;4987274;28;20029;-83
2022/10/17 15:10:49;;;;;;;5.22;1.58;;;;;;;;;;4989856;28;20019;-84
2022/10/17 15:13:17;;;;;;;2.70;1.80;;;;;;;;;;4996115;28;20022;-83
2022/10/17 15:15:43;;;;;;;3.70;1.73;;;;;;;;;;4993116;28;20026;-87